Terminal Aerodrome Forecast
Issued by NWS Boston, MA

Home | Current Version | Previous Version | Text Only | Print | Product List | Glossary On
Versions: 1 2 3 4 5 6 7 8 9 10 11 12 13 14 15 16 17 18
000
FTUS41 KBOX 260833 AAA
TAFORH
TAF AMD
KORH 260833Z 2609/2706 04012G20KT 5SM -RA OVC003
     FM261100 01006KT 3SM SHRA OVC003
     FM261300 34010KT 5SM BR VCSH OVC015
     FM261700 32010KT P6SM VCSH OVC015
     FM262300 32005KT P6SM OVC020=

USA.gov is the U.S. government's official web portal to all federal, state and local government web resources and services.